createdAt,value
2023-03-05T00:01:11.176Z,96180.34
2023-03-05T00:03:38.017Z,96173.47
2023-03-05T00:06:05.387Z,96170.28
2023-03-05T00:08:32.704Z,96170.28
2023-03-05T00:11:04.939Z,96165.63
2023-03-05T00:13:32.806Z,96168.78
2023-03-05T00:15:59.309Z,96158.84
2023-03-05T00:18:25.773Z,96159.75
2023-03-05T00:20:52.594Z,96170.63
2023-03-05T00:23:19.467Z,96166.06
2023-03-05T00:25:46.601Z,96175.69
2023-03-05T00:28:13.349Z,96161.69
2023-03-05T00:30:40.420Z,96159.28
2023-03-05T00:33:07.497Z,96148.66
2023-03-05T00:35:40.843Z,96147.06
2023-03-05T00:38:07.483Z,96147.50
2023-03-05T00:40:39.133Z,96142.72
2023-03-05T00:43:07.061Z,96139.81
2023-03-05T00:45:34.038Z,96143.56
2023-03-05T00:48:00.709Z,96146.91
2023-03-05T00:50:28.690Z,96152.38
2023-03-05T00:52:55.590Z,96145.66
2023-03-05T00:55:22.086Z,96150.34
2023-03-05T00:57:49.002Z,96147.88
2023-03-05T01:00:16.280Z,96149.00
2023-03-05T01:02:43.190Z,96138.88
2023-03-05T01:05:14.093Z,96138.19
2023-03-05T01:07:40.906Z,96133.94
2023-03-05T01:10:08.305Z,96140.78
2023-03-05T01:12:35.187Z,96144.38
2023-03-05T01:15:01.755Z,96127.38
2023-03-05T01:17:28.201Z,96126.56
2023-03-05T01:19:55.033Z,96116.94
2023-03-05T01:22:21.443Z,96122.97
2023-03-05T01:24:47.958Z,96119.69
2023-03-05T01:27:15.435Z,96113.97
2023-03-05T01:29:41.849Z,96105.84
2023-03-05T01:32:08.621Z,96109.13
2023-03-05T01:34:37.989Z,96106.78
2023-03-05T01:37:04.556Z,96105.22
2023-03-05T01:39:31.068Z,96103.56
2023-03-05T01:41:57.940Z,96097.56
2023-03-05T01:44:28.348Z,96085.97
2023-03-05T01:46:54.822Z,96083.53
2023-03-05T01:49:40.724Z,96080.28
2023-03-05T01:52:13.896Z,96074.94
2023-03-05T01:54:46.922Z,96071.22
2023-03-05T01:57:21.417Z,96071.06
2023-03-05T01:59:51.429Z,96062.94
2023-03-05T02:02:19.560Z,96060.16
2023-03-05T02:04:50.758Z,96070.69
2023-03-05T02:07:18.443Z,96058.25
2023-03-05T02:09:44.895Z,96059.19
2023-03-05T02:12:12.920Z,96060.63
2023-03-05T02:14:43.154Z,96049.81
2023-03-05T02:17:11.109Z,96051.09
2023-03-05T02:20:09.231Z,96038.72
2023-03-05T02:22:35.691Z,96038.44
2023-03-05T02:25:02.108Z,96032.50
2023-03-05T02:27:36.033Z,96034.44
2023-03-05T02:30:03.059Z,96034.81
2023-03-05T02:32:32.467Z,96025.50
2023-03-05T02:34:59.277Z,96033.78
2023-03-05T02:37:25.738Z,96033.50
2023-03-05T02:39:52.155Z,96017.47
2023-03-05T02:42:18.902Z,96021.63
2023-03-05T02:44:45.304Z,96013.66
2023-03-05T02:47:11.729Z,96003.03
2023-03-05T02:49:38.699Z,96002.22
2023-03-05T02:52:05.443Z,96004.38
2023-03-05T02:54:31.903Z,95998.50
2023-03-05T02:56:58.350Z,96004.38
2023-03-05T02:59:24.772Z,95993.00
2023-03-05T03:01:51.402Z,95980.28
2023-03-05T03:04:18.552Z,95981.72
2023-03-05T03:06:44.951Z,95986.19
2023-03-05T03:09:11.347Z,95987.88
2023-03-05T03:11:38.091Z,95968.50
2023-03-05T03:14:04.534Z,95970.88
2023-03-05T03:16:30.992Z,95964.38
2023-03-05T03:18:57.872Z,95967.78
2023-03-05T03:21:25.484Z,95955.22
2023-03-05T03:23:51.936Z,95954.50
2023-03-05T03:26:19.726Z,95958.16
2023-03-05T03:28:46.147Z,95952.94
2023-03-05T03:31:12.693Z,95954.22
2023-03-05T03:33:40.031Z,95957.13
2023-03-05T03:36:07.172Z,95949.28
2023-03-05T03:38:33.645Z,95952.13
2023-03-05T03:41:00.262Z,95949.84
2023-03-05T03:43:26.729Z,95947.38
2023-03-05T03:45:53.168Z,95948.72
2023-03-05T03:48:21.947Z,95949.06
2023-03-05T03:50:48.352Z,95947.75
2023-03-05T03:53:14.881Z,95932.03
2023-03-05T03:55:47.046Z,95934.50
2023-03-05T03:58:13.572Z,95941.91
2023-03-05T04:00:41.498Z,95935.53
2023-03-05T04:03:09.206Z,95934.72
2023-03-05T04:05:35.629Z,95926.72
2023-03-05T04:08:03.405Z,95928.97
2023-03-05T04:10:30.442Z,95927.16
2023-03-05T04:12:56.879Z,95931.09
2023-03-05T04:15:23.364Z,95921.66
2023-03-05T04:17:50.256Z,95909.22
2023-03-05T04:20:16.982Z,95911.97
2023-03-05T04:22:43.438Z,95918.84
2023-03-05T04:25:10.926Z,95913.09
2023-03-05T04:27:40.472Z,95913.72
2023-03-05T04:30:08.817Z,95917.38
2023-03-05T04:32:36.130Z,95922.38
2023-03-05T04:35:03.289Z,95920.91
2023-03-05T04:37:29.692Z,95924.16
2023-03-05T04:39:56.824Z,95921.44
2023-03-05T04:42:23.302Z,95926.94
2023-03-05T04:44:49.959Z,95929.84
2023-03-05T04:47:18.002Z,95929.47
2023-03-05T04:49:44.739Z,95938.44
2023-03-05T04:52:12.611Z,95930.59
2023-03-05T04:54:39.596Z,95926.88
2023-03-05T04:57:06.530Z,95909.31
2023-03-05T04:59:33.061Z,95921.53
2023-03-05T05:02:00.065Z,95912.88
2023-03-05T05:04:26.650Z,95908.00
2023-03-05T05:06:56.101Z,95908.97
2023-03-05T05:09:23.954Z,95903.28
2023-03-05T05:11:50.403Z,95905.41
2023-03-05T05:14:17.840Z,95903.63
2023-03-05T05:16:44.709Z,95901.47
2023-03-05T05:19:11.714Z,95896.25
2023-03-05T05:21:38.271Z,95897.88
2023-03-05T05:24:05.340Z,95894.63
2023-03-05T05:26:32.334Z,95895.94
2023-03-05T05:28:58.765Z,95889.38
2023-03-05T05:31:25.215Z,95889.28
2023-03-05T05:33:52.157Z,95882.16
2023-03-05T05:36:19.409Z,95881.00
2023-03-05T05:38:46.009Z,95886.25
2023-03-05T05:41:16.039Z,95883.03
2023-03-05T05:43:42.525Z,95877.81
2023-03-05T05:46:13.291Z,95879.13
2023-03-05T05:48:40.634Z,95868.50
2023-03-05T05:51:16.269Z,95857.06
2023-03-05T05:53:44.471Z,95857.31
2023-03-05T05:56:13.571Z,95858.06
2023-03-05T05:58:41.418Z,95855.78
2023-03-05T06:01:20.781Z,95850.91
2023-03-05T06:03:47.532Z,95852.69
2023-03-05T06:06:16.904Z,95856.78
2023-03-05T06:08:44.048Z,95858.91
2023-03-05T06:11:11.038Z,95856.84
2023-03-05T06:13:38.039Z,95847.34
2023-03-05T06:16:08.383Z,95851.91
2023-03-05T06:18:35.429Z,95853.41
2023-03-05T06:21:05.338Z,95845.59
2023-03-05T06:23:32.974Z,95848.00
2023-03-05T06:26:01.673Z,95850.97
2023-03-05T06:28:29.392Z,95848.88
2023-03-05T06:31:08.478Z,95855.09
2023-03-05T06:33:35.976Z,95845.44
2023-03-05T06:36:08.014Z,95841.34
2023-03-05T06:38:34.892Z,95836.47
2023-03-05T06:41:09.142Z,95834.69
2023-03-05T06:43:39.035Z,95822.75
2023-03-05T06:46:17.865Z,95825.38
2023-03-05T06:48:45.774Z,95824.06
2023-03-05T06:51:17.610Z,95821.47
2023-03-05T06:53:44.979Z,95823.78
2023-03-05T06:56:14.269Z,95819.50
2023-03-05T06:58:41.168Z,95812.97
2023-03-05T07:01:07.715Z,95820.81
2023-03-05T07:03:35.980Z,95815.28
2023-03-05T07:06:07.389Z,95818.38
2023-03-05T07:08:33.913Z,95809.75
2023-03-05T07:11:01.471Z,95820.84
2023-03-05T07:13:28.702Z,95818.59
2023-03-05T07:15:55.915Z,95811.59
2023-03-05T07:18:22.788Z,95815.69
2023-03-05T07:20:49.194Z,95817.63
2023-03-05T07:23:15.643Z,95803.88
2023-03-05T07:25:42.540Z,95809.47
2023-03-05T07:28:10.647Z,95806.03
2023-03-05T07:30:37.152Z,95799.81
2023-03-05T07:33:04.056Z,95798.34
2023-03-05T07:35:30.561Z,95800.00
2023-03-05T07:37:57.001Z,95795.91
2023-03-05T07:40:23.961Z,95797.69
2023-03-05T07:42:50.362Z,95796.53
2023-03-05T07:45:16.790Z,95788.84
2023-03-05T07:47:43.604Z,95779.97
2023-03-05T07:50:11.409Z,95777.38
2023-03-05T07:52:37.922Z,95774.34
2023-03-05T07:55:05.220Z,95770.44
2023-03-05T07:57:31.682Z,95766.09
2023-03-05T07:59:58.054Z,95762.41
2023-03-05T08:02:25.003Z,95752.25
2023-03-05T08:04:51.460Z,95750.97
2023-03-05T08:07:17.951Z,95744.16
2023-03-05T08:09:44.911Z,95742.44
2023-03-05T08:12:11.420Z,95735.41
2023-03-05T08:14:38.065Z,95723.22
2023-03-05T08:17:06.013Z,95722.28
2023-03-05T08:19:33.493Z,95708.22
2023-03-05T08:22:00.007Z,95703.22
2023-03-05T08:24:30.125Z,95701.50
2023-03-05T08:26:58.023Z,95693.03
2023-03-05T08:29:25.987Z,95690.25
2023-03-05T08:31:54.131Z,95682.25
2023-03-05T08:34:21.290Z,95681.16
2023-03-05T08:36:48.114Z,95682.44
2023-03-05T08:39:15.353Z,95677.22
2023-03-05T08:41:41.926Z,95681.75
2023-03-05T08:44:08.755Z,95674.00
2023-03-05T08:46:36.635Z,95672.13
2023-03-05T08:49:03.167Z,95668.13
2023-03-05T08:51:29.569Z,95664.97
2023-03-05T08:53:58.955Z,95661.63
2023-03-05T08:56:27.499Z,95660.06
2023-03-05T08:58:54.146Z,95662.78
2023-03-05T09:01:20.966Z,95659.09
2023-03-05T09:03:47.478Z,95663.50
2023-03-05T09:06:13.928Z,95669.06
2023-03-05T09:08:41.177Z,95668.88
2023-03-05T09:11:09.280Z,95665.97
2023-03-05T09:13:36.312Z,95672.28
2023-03-05T09:16:06.863Z,95668.22
2023-03-05T09:18:36.454Z,95665.91
2023-03-05T09:21:12.695Z,95668.59
2023-03-05T09:23:39.894Z,95677.66
2023-03-05T09:26:08.142Z,95675.38
2023-03-05T09:28:34.990Z,95677.66
2023-03-05T09:31:05.519Z,95668.22
2023-03-05T09:33:33.267Z,95666.81
2023-03-05T09:36:01.665Z,95673.59
2023-03-05T09:38:28.901Z,95671.31
2023-03-05T09:41:08.093Z,95670.03
2023-03-05T09:43:49.800Z,95664.06
2023-03-05T09:46:36.403Z,95663.28
2023-03-05T09:49:21.147Z,95662.34
2023-03-05T09:51:55.936Z,95660.81
2023-03-05T09:54:36.127Z,95656.91
2023-03-05T09:57:05.227Z,95661.53
2023-03-05T09:59:40.117Z,95662.53
2023-03-05T10:02:18.266Z,95655.69
2023-03-05T10:04:52.060Z,95654.91
2023-03-05T10:07:29.163Z,95650.69
2023-03-05T10:10:22.876Z,95645.19
2023-03-05T10:12:52.957Z,95642.16
2023-03-05T10:15:52.176Z,95645.72
2023-03-05T10:18:21.635Z,95646.59
2023-03-05T10:20:57.165Z,95644.56
2023-03-05T10:23:58.739Z,95653.81
2023-03-05T10:26:46.836Z,95644.25
2023-03-05T10:29:13.171Z,95647.31
2023-03-05T10:31:58.502Z,95642.19
2023-03-05T10:34:40.119Z,95643.78
2023-03-05T10:37:24.729Z,95638.63
2023-03-05T10:40:09.827Z,95635.44
2023-03-05T10:42:58.467Z,95644.47
2023-03-05T10:45:30.855Z,95631.28
2023-03-05T10:48:19.143Z,95632.63
2023-03-05T10:50:52.254Z,95634.00
2023-03-05T10:53:34.237Z,95640.34
2023-03-05T10:56:03.888Z,95629.31
2023-03-05T10:58:31.010Z,95628.06
2023-03-05T11:01:10.575Z,95630.00
2023-03-05T11:04:07.217Z,95632.91
2023-03-05T11:06:47.878Z,95643.84
2023-03-05T11:09:33.111Z,95648.91
2023-03-05T11:12:05.850Z,95647.00
2023-03-05T11:14:33.948Z,95647.69
2023-03-05T11:17:02.309Z,95646.34
2023-03-05T11:19:33.980Z,95646.09
2023-03-05T11:22:20.643Z,95637.78
2023-03-05T11:25:19.144Z,95639.66
2023-03-05T11:27:54.564Z,95639.31
2023-03-05T11:30:36.697Z,95647.34
2023-03-05T11:33:22.612Z,95643.34
2023-03-05T11:35:51.926Z,95641.66
2023-03-05T11:38:25.521Z,95631.81
2023-03-05T11:40:55.286Z,95642.03
2023-03-05T11:43:24.226Z,95645.91
2023-03-05T11:45:54.361Z,95632.75
2023-03-05T11:48:27.010Z,95633.16
2023-03-05T11:50:58.586Z,95623.75
2023-03-05T11:53:45.693Z,95627.25
2023-03-05T11:56:21.432Z,95626.25
2023-03-05T11:59:11.865Z,95628.34
2023-03-05T12:01:44.993Z,95630.25
2023-03-05T12:04:12.438Z,95621.94
2023-03-05T12:06:43.658Z,95627.22
2023-03-05T12:09:20.434Z,95620.00
2023-03-05T12:11:51.442Z,95624.63
2023-03-05T12:14:24.965Z,95614.78
2023-03-05T12:17:03.696Z,95614.38
2023-03-05T12:19:37.887Z,95611.81
2023-03-05T12:22:15.037Z,95605.69
2023-03-05T12:24:41.781Z,95613.56
2023-03-05T12:27:14.632Z,95603.63
2023-03-05T12:29:44.586Z,95599.88
2023-03-05T12:32:25.437Z,95596.75
2023-03-05T12:35:23.575Z,95600.09
2023-03-05T12:37:50.101Z,95597.72
2023-03-05T12:40:22.473Z,95600.59
2023-03-05T12:42:52.169Z,95586.47
2023-03-05T12:45:19.581Z,95585.97
2023-03-05T12:47:47.427Z,95583.44
2023-03-05T12:50:29.653Z,95578.50
2023-03-05T12:53:06.931Z,95570.63
2023-03-05T12:55:49.979Z,95570.41
2023-03-05T12:58:24.671Z,95570.41
2023-03-05T13:01:20.803Z,95561.56
2023-03-05T13:03:53.177Z,95570.03
2023-03-05T13:06:30.197Z,95563.75
2023-03-05T13:09:08.795Z,95563.03
2023-03-05T13:11:39.331Z,95556.13
2023-03-05T13:14:27.579Z,95555.34
2023-03-05T13:16:55.526Z,95562.19
2023-03-05T13:19:22.693Z,95554.78
2023-03-05T13:22:18.454Z,95548.75
2023-03-05T13:24:44.791Z,95549.22
2023-03-05T13:27:30.109Z,95545.63
2023-03-05T13:29:56.487Z,95550.78
2023-03-05T13:32:30.376Z,95544.34
2023-03-05T13:34:59.063Z,95542.41
2023-03-05T13:37:28.933Z,95543.19
2023-03-05T13:40:15.873Z,95543.34
2023-03-05T13:42:42.486Z,95548.91
2023-03-05T13:45:26.724Z,95536.97
2023-03-05T13:48:01.760Z,95543.50
2023-03-05T13:50:35.874Z,95541.22
2023-03-05T13:53:22.364Z,95534.47
2023-03-05T13:55:51.066Z,95544.28
2023-03-05T13:58:44.252Z,95532.53
2023-03-05T14:01:22.807Z,95531.75
2023-03-05T14:03:51.465Z,95531.75
2023-03-05T14:06:21.671Z,95530.16
2023-03-05T14:08:53.410Z,95533.78
2023-03-05T14:11:20.385Z,95532.78
2023-03-05T14:13:48.582Z,95537.91
2023-03-05T14:16:24.199Z,95526.41
2023-03-05T14:18:56.920Z,95522.63
2023-03-05T14:21:24.695Z,95527.72
2023-03-05T14:23:54.770Z,95520.94
2023-03-05T14:26:29.457Z,95516.03
2023-03-05T14:29:00.362Z,95522.38
2023-03-05T14:31:29.223Z,95519.41
2023-03-05T14:34:01.868Z,95521.28
2023-03-05T14:36:30.358Z,95517.06
2023-03-05T14:38:57.190Z,95512.88
2023-03-05T14:41:37.783Z,95504.00
2023-03-05T14:44:13.449Z,95495.81
2023-03-05T14:46:40.483Z,95497.88
2023-03-05T14:49:07.102Z,95493.16
2023-03-05T14:51:38.092Z,95494.44
2023-03-05T14:54:05.802Z,95493.25
2023-03-05T14:56:33.394Z,95489.47
2023-03-05T14:58:59.858Z,95482.91
2023-03-05T15:01:26.792Z,95484.78
2023-03-05T15:03:53.277Z,95491.19
2023-03-05T15:06:26.450Z,95487.94
2023-03-05T15:08:53.274Z,95477.22
2023-03-05T15:11:22.539Z,95478.38
2023-03-05T15:13:50.376Z,95474.09
2023-03-05T15:16:19.005Z,95473.50
2023-03-05T15:18:46.386Z,95471.97
2023-03-05T15:21:12.914Z,95471.75
2023-03-05T15:23:39.485Z,95464.72
2023-03-05T15:26:09.497Z,95464.50
2023-03-05T15:28:38.708Z,95456.72
2023-03-05T15:31:06.119Z,95455.47
2023-03-05T15:33:33.643Z,95445.09
2023-03-05T15:36:00.177Z,95444.91
2023-03-05T15:38:26.649Z,95442.28
2023-03-05T15:40:54.580Z,95437.47
2023-03-05T15:43:21.096Z,95431.94
2023-03-05T15:45:48.405Z,95431.84
2023-03-05T15:48:14.885Z,95430.47
2023-03-05T15:50:43.582Z,95425.84
2023-03-05T15:53:13.076Z,95421.63
2023-03-05T15:55:40.594Z,95417.72
2023-03-05T15:58:07.520Z,95419.09
2023-03-05T16:00:36.766Z,95423.72
2023-03-05T16:03:04.001Z,95419.72
2023-03-05T16:05:30.600Z,95418.47
2023-03-05T16:07:59.132Z,95413.31
2023-03-05T16:10:28.754Z,95408.47
2023-03-05T16:13:01.741Z,95407.31
2023-03-05T16:15:28.833Z,95413.84
2023-03-05T16:17:57.830Z,95416.72
2023-03-05T16:20:24.321Z,95406.41
2023-03-05T16:22:50.771Z,95406.09
2023-03-05T16:25:18.250Z,95406.84
2023-03-05T16:27:45.195Z,95409.69
2023-03-05T16:30:15.010Z,95403.03
2023-03-05T16:32:42.295Z,95403.81
2023-03-05T16:35:11.832Z,95400.06
2023-03-05T16:37:39.352Z,95395.72
2023-03-05T16:40:07.395Z,95402.38
2023-03-05T16:42:33.934Z,95411.47
2023-03-05T16:45:00.420Z,95403.31
2023-03-05T16:47:27.665Z,95398.44
2023-03-05T16:49:54.063Z,95396.81
2023-03-05T16:52:21.062Z,95396.63
2023-03-05T16:54:48.545Z,95390.31
2023-03-05T16:57:15.104Z,95390.56
2023-03-05T16:59:42.378Z,95386.56
2023-03-05T17:02:09.182Z,95388.13
2023-03-05T17:04:35.820Z,95391.25
2023-03-05T17:07:04.486Z,95387.25
2023-03-05T17:09:31.144Z,95384.06
2023-03-05T17:11:57.668Z,95381.84
2023-03-05T17:14:24.531Z,95393.25
2023-03-05T17:16:51.058Z,95385.81
2023-03-05T17:19:17.680Z,95392.78
2023-03-05T17:21:44.550Z,95383.31
2023-03-05T17:24:11.430Z,95391.06
2023-03-05T17:26:38.004Z,95381.59
2023-03-05T17:29:07.297Z,95386.84
2023-03-05T17:31:34.322Z,95381.31
2023-03-05T17:34:01.009Z,95378.88
2023-03-05T17:36:27.443Z,95381.06
2023-03-05T17:38:54.342Z,95378.34
2023-03-05T17:41:21.878Z,95374.34
2023-03-05T17:43:48.469Z,95380.34
2023-03-05T17:46:16.520Z,95377.09
2023-03-05T17:48:43.089Z,95382.50
2023-03-05T17:51:14.297Z,95378.00
2023-03-05T17:53:41.326Z,95377.09
2023-03-05T17:56:13.093Z,95388.91
2023-03-05T17:58:40.540Z,95388.66
2023-03-05T18:01:08.502Z,95383.44
2023-03-05T18:03:36.359Z,95390.47
2023-03-05T18:06:03.741Z,95385.56
2023-03-05T18:08:30.684Z,95383.22
2023-03-05T18:10:57.236Z,95384.97
2023-03-05T18:13:23.709Z,95386.66
2023-03-05T18:15:50.471Z,95382.41
2023-03-05T18:18:18.129Z,95383.44
2023-03-05T18:20:45.547Z,95381.78
2023-03-05T18:23:12.348Z,95385.78
2023-03-05T18:25:38.780Z,95384.41
2023-03-05T18:28:11.418Z,95379.09
2023-03-05T18:30:40.438Z,95377.00
2023-03-05T18:33:08.036Z,95376.56
2023-03-05T18:35:35.285Z,95377.09
2023-03-05T18:38:01.988Z,95376.19
2023-03-05T18:40:32.528Z,95375.56
2023-03-05T18:43:01.448Z,95380.06
2023-03-05T18:45:30.120Z,95372.13
2023-03-05T18:47:56.681Z,95373.50
2023-03-05T18:50:25.838Z,95370.22
2023-03-05T18:52:53.021Z,95367.25
2023-03-05T18:55:23.303Z,95371.31
2023-03-05T18:57:50.516Z,95366.16
2023-03-05T19:00:19.123Z,95366.44
2023-03-05T19:02:45.588Z,95366.00
2023-03-05T19:05:15.175Z,95360.84
2023-03-05T19:07:42.334Z,95371.31
2023-03-05T19:10:11.065Z,95356.41
2023-03-05T19:13:27.639Z,95353.63
2023-03-05T19:15:54.141Z,95352.97
2023-03-05T19:18:57.418Z,95345.75
2023-03-05T19:21:24.804Z,95349.53
2023-03-05T19:23:51.183Z,95354.50
2023-03-05T19:26:17.875Z,95349.38
2023-03-05T19:28:44.417Z,95354.63
2023-03-05T19:31:11.265Z,95352.53
2023-03-05T19:33:38.281Z,95351.78
2023-03-05T19:36:08.459Z,95346.91
2023-03-05T19:38:34.851Z,95355.78
2023-03-05T19:41:01.825Z,95355.16
2023-03-05T19:43:28.304Z,95354.06
2023-03-05T19:46:04.772Z,95354.59
2023-03-05T19:48:32.645Z,95350.19
2023-03-05T19:50:59.264Z,95350.53
2023-03-05T19:53:26.720Z,95341.78
2023-03-05T19:55:53.134Z,95338.06
2023-03-05T19:58:20.120Z,95340.88
2023-03-05T20:00:46.734Z,95330.94
2023-03-05T20:03:13.256Z,95335.91
2023-03-05T20:05:41.849Z,95325.88
2023-03-05T20:08:08.616Z,95323.25
2023-03-05T20:10:35.067Z,95313.97
2023-03-05T20:13:02.335Z,95315.69
2023-03-05T20:15:29.966Z,95311.72
2023-03-05T20:17:57.815Z,95308.72
2023-03-05T20:20:24.930Z,95305.44
2023-03-05T20:22:51.787Z,95302.28
2023-03-05T20:25:21.099Z,95302.28
2023-03-05T20:27:47.595Z,95294.59
2023-03-05T20:30:15.550Z,95304.34
2023-03-05T20:32:42.295Z,95316.97
2023-03-05T20:35:13.751Z,95307.00
2023-03-05T20:37:50.371Z,95312.75
2023-03-05T20:40:17.435Z,95314.69
2023-03-05T20:42:44.141Z,95312.78
2023-03-05T20:45:11.410Z,95322.66
2023-03-05T20:47:40.856Z,95324.06
2023-03-05T20:50:12.411Z,95334.41
2023-03-05T20:52:39.093Z,95330.31
2023-03-05T20:55:06.770Z,95337.66
2023-03-05T20:57:33.632Z,95340.00
2023-03-05T21:00:01.002Z,95341.66
2023-03-05T21:02:27.555Z,95354.72
2023-03-05T21:04:54.007Z,95354.03
2023-03-05T21:07:20.837Z,95353.69
2023-03-05T21:09:47.272Z,95352.38
2023-03-05T21:12:13.840Z,95353.69
2023-03-05T21:14:41.135Z,95343.25
2023-03-05T21:17:08.768Z,95334.25
2023-03-05T21:19:38.049Z,95324.84
2023-03-05T21:22:04.980Z,95314.88
2023-03-05T21:24:53.818Z,95321.47
2023-03-05T21:27:20.262Z,95302.84
2023-03-05T21:29:46.638Z,95297.75
2023-03-05T21:32:13.515Z,95297.00
2023-03-05T21:34:39.912Z,95296.31
2023-03-05T21:37:06.303Z,95299.16
2023-03-05T21:39:33.114Z,95304.78
2023-03-05T21:41:59.641Z,95307.72
2023-03-05T21:44:26.756Z,95298.16
2023-03-05T21:46:53.649Z,95308.03
2023-03-05T21:49:20.273Z,95300.44
2023-03-05T21:52:14.414Z,95289.78
2023-03-05T21:54:42.083Z,95276.22
2023-03-05T21:57:10.679Z,95289.16
2023-03-05T21:59:41.898Z,95283.88
2023-03-05T22:02:17.381Z,95291.75
2023-03-05T22:04:45.331Z,95296.53
2023-03-05T22:07:12.116Z,95305.34
2023-03-05T22:09:38.550Z,95291.53
2023-03-05T22:12:49.077Z,95292.00
2023-03-05T22:15:15.548Z,95290.03
2023-03-05T22:17:41.950Z,95283.56
2023-03-05T22:20:09.455Z,95279.50
2023-03-05T22:22:36.462Z,95280.16
2023-03-05T22:25:04.644Z,95273.09
2023-03-05T22:27:32.080Z,95265.59
2023-03-05T22:29:58.644Z,95257.28
2023-03-05T22:32:25.201Z,95266.41
2023-03-05T22:34:56.523Z,95257.06
2023-03-05T22:37:23.009Z,95251.69
2023-03-05T22:39:53.984Z,95249.50
2023-03-05T22:42:21.193Z,95248.38
2023-03-05T22:44:47.733Z,95249.81
2023-03-05T22:47:14.145Z,95242.81
2023-03-05T22:49:40.882Z,95242.09
2023-03-05T22:52:07.315Z,95235.50
2023-03-05T22:54:34.006Z,95238.09
2023-03-05T22:57:00.398Z,95245.31
2023-03-05T22:59:28.574Z,95235.84
2023-03-05T23:01:55.390Z,95231.19
2023-03-05T23:04:50.125Z,95222.72
2023-03-05T23:07:19.419Z,95220.69
2023-03-05T23:09:53.628Z,95216.22
2023-03-05T23:12:20.556Z,95220.44
2023-03-05T23:14:47.028Z,95222.56
2023-03-05T23:17:13.942Z,95218.69
2023-03-05T23:19:40.345Z,95215.34
2023-03-05T23:22:08.564Z,95208.63
2023-03-05T23:24:35.683Z,95208.53
2023-03-05T23:27:05.267Z,95210.50
2023-03-05T23:30:16.735Z,95204.91
2023-03-05T23:33:04.706Z,95189.59
2023-03-05T23:35:34.731Z,95197.59
2023-03-05T23:38:03.022Z,95202.28
2023-03-05T23:40:32.356Z,95200.84
2023-03-05T23:42:59.488Z,95185.31
2023-03-05T23:45:26.386Z,95178.44
2023-03-05T23:47:53.037Z,95187.00
2023-03-05T23:50:21.502Z,95185.41
2023-03-05T23:52:49.160Z,95179.22
2023-03-05T23:55:25.604Z,95172.34
2023-03-05T23:57:52.355Z,95165.59
